sensor_id;sensor_type;location;lat;lon;timestamp;P1;durP1;ratioP1;P2;durP2;ratioP2
47796;SDS011;33558;50.922;14.068;2023-12-04T00:00:27;20.33;;;10.03;;
47796;SDS011;33558;50.922;14.068;2023-12-04T00:02:54;19.73;;;10.27;;
47796;SDS011;33558;50.922;14.068;2023-12-04T00:05:20;18.33;;;9.30;;
47796;SDS011;33558;50.922;14.068;2023-12-04T00:07:47;23.87;;;10.73;;
47796;SDS011;33558;50.922;14.068;2023-12-04T00:10:13;20.50;;;10.17;;
47796;SDS011;33558;50.922;14.068;2023-12-04T00:12:40;18.10;;;9.33;;
47796;SDS011;33558;50.922;14.068;2023-12-04T00:15:07;20.07;;;9.33;;
47796;SDS011;33558;50.922;14.068;2023-12-04T00:17:36;19.70;;;9.97;;
47796;SDS011;33558;50.922;14.068;2023-12-04T00:20:05;17.30;;;9.20;;
47796;SDS011;33558;50.922;14.068;2023-12-04T00:22:32;20.57;;;9.53;;
47796;SDS011;33558;50.922;14.068;2023-12-04T00:24:59;18.40;;;9.37;;
47796;SDS011;33558;50.922;14.068;2023-12-04T00:27:25;19.17;;;9.43;;
47796;SDS011;33558;50.922;14.068;2023-12-04T00:29:52;18.30;;;9.23;;
47796;SDS011;33558;50.922;14.068;2023-12-04T00:32:19;18.30;;;9.67;;
47796;SDS011;33558;50.922;14.068;2023-12-04T00:34:47;19.77;;;9.40;;
47796;SDS011;33558;50.922;14.068;2023-12-04T00:37:14;20.63;;;10.33;;
47796;SDS011;33558;50.922;14.068;2023-12-04T00:39:40;22.47;;;10.60;;
47796;SDS011;33558;50.922;14.068;2023-12-04T00:42:07;22.83;;;10.90;;
47796;SDS011;33558;50.922;14.068;2023-12-04T00:44:33;19.10;;;9.60;;
47796;SDS011;33558;50.922;14.068;2023-12-04T00:47:00;20.53;;;10.10;;
47796;SDS011;33558;50.922;14.068;2023-12-04T00:49:27;19.27;;;9.40;;
47796;SDS011;33558;50.922;14.068;2023-12-04T00:51:55;19.07;;;9.67;;
47796;SDS011;33558;50.922;14.068;2023-12-04T00:54:21;20.03;;;10.07;;
47796;SDS011;33558;50.922;14.068;2023-12-04T00:56:48;20.20;;;10.27;;
47796;SDS011;33558;50.922;14.068;2023-12-04T00:59:14;23.70;;;11.23;;
47796;SDS011;33558;50.922;14.068;2023-12-04T01:01:41;27.17;;;10.50;;
47796;SDS011;33558;50.922;14.068;2023-12-04T01:04:07;24.27;;;10.37;;
47796;SDS011;33558;50.922;14.068;2023-12-04T01:06:34;23.43;;;11.37;;
47796;SDS011;33558;50.922;14.068;2023-12-04T01:09:02;20.70;;;11.60;;
47796;SDS011;33558;50.922;14.068;2023-12-04T01:11:29;22.93;;;11.63;;
47796;SDS011;33558;50.922;14.068;2023-12-04T01:13:56;25.10;;;12.53;;
47796;SDS011;33558;50.922;14.068;2023-12-04T01:16:23;21.87;;;11.03;;
47796;SDS011;33558;50.922;14.068;2023-12-04T01:18:49;22.97;;;11.13;;
47796;SDS011;33558;50.922;14.068;2023-12-04T01:21:16;21.73;;;10.80;;
47796;SDS011;33558;50.922;14.068;2023-12-04T01:23:43;25.37;;;11.90;;
47796;SDS011;33558;50.922;14.068;2023-12-04T01:26:11;24.27;;;11.93;;
47796;SDS011;33558;50.922;14.068;2023-12-04T01:28:38;24.77;;;12.37;;
47796;SDS011;33558;50.922;14.068;2023-12-04T01:31:05;26.70;;;12.53;;
47796;SDS011;33558;50.922;14.068;2023-12-04T01:33:32;25.57;;;12.57;;
47796;SDS011;33558;50.922;14.068;2023-12-04T01:35:59;24.10;;;11.90;;
47796;SDS011;33558;50.922;14.068;2023-12-04T01:38:25;26.10;;;12.50;;
47796;SDS011;33558;50.922;14.068;2023-12-04T01:40:52;24.47;;;12.03;;
47796;SDS011;33558;50.922;14.068;2023-12-04T01:43:20;27.00;;;12.33;;
47796;SDS011;33558;50.922;14.068;2023-12-04T01:45:46;27.57;;;12.87;;
47796;SDS011;33558;50.922;14.068;2023-12-04T01:48:13;27.03;;;12.53;;
47796;SDS011;33558;50.922;14.068;2023-12-04T01:50:40;24.33;;;12.57;;
47796;SDS011;33558;50.922;14.068;2023-12-04T01:53:06;23.60;;;11.37;;
47796;SDS011;33558;50.922;14.068;2023-12-04T01:55:33;25.67;;;12.97;;
47796;SDS011;33558;50.922;14.068;2023-12-04T01:58:00;26.30;;;12.90;;
47796;SDS011;33558;50.922;14.068;2023-12-04T02:00:29;22.80;;;12.20;;
47796;SDS011;33558;50.922;14.068;2023-12-04T02:02:57;25.37;;;11.47;;
47796;SDS011;33558;50.922;14.068;2023-12-04T02:05:24;25.63;;;11.27;;
47796;SDS011;33558;50.922;14.068;2023-12-04T02:07:52;27.43;;;11.47;;
47796;SDS011;33558;50.922;14.068;2023-12-04T02:10:19;23.20;;;12.13;;
47796;SDS011;33558;50.922;14.068;2023-12-04T02:12:46;25.50;;;11.70;;
47796;SDS011;33558;50.922;14.068;2023-12-04T02:15:12;25.57;;;12.37;;
47796;SDS011;33558;50.922;14.068;2023-12-04T02:17:41;27.40;;;11.73;;
47796;SDS011;33558;50.922;14.068;2023-12-04T02:20:09;26.47;;;12.37;;
47796;SDS011;33558;50.922;14.068;2023-12-04T02:22:37;27.27;;;12.37;;
47796;SDS011;33558;50.922;14.068;2023-12-04T02:25:06;24.10;;;12.73;;
47796;SDS011;33558;50.922;14.068;2023-12-04T02:27:33;27.13;;;11.67;;
47796;SDS011;33558;50.922;14.068;2023-12-04T02:30:05;23.97;;;11.73;;
47796;SDS011;33558;50.922;14.068;2023-12-04T02:32:35;24.63;;;12.60;;
47796;SDS011;33558;50.922;14.068;2023-12-04T02:35:04;30.07;;;11.70;;
47796;SDS011;33558;50.922;14.068;2023-12-04T02:37:31;26.70;;;12.73;;
47796;SDS011;33558;50.922;14.068;2023-12-04T02:39:58;27.60;;;12.53;;
47796;SDS011;33558;50.922;14.068;2023-12-04T02:42:26;30.33;;;14.00;;
47796;SDS011;33558;50.922;14.068;2023-12-04T02:44:53;27.97;;;13.50;;
47796;SDS011;33558;50.922;14.068;2023-12-04T02:47:19;26.63;;;13.07;;
47796;SDS011;33558;50.922;14.068;2023-12-04T02:49:46;27.77;;;12.97;;
47796;SDS011;33558;50.922;14.068;2023-12-04T02:52:13;28.97;;;13.73;;
47796;SDS011;33558;50.922;14.068;2023-12-04T02:54:39;28.20;;;13.00;;
47796;SDS011;33558;50.922;14.068;2023-12-04T02:57:06;32.37;;;13.53;;
47796;SDS011;33558;50.922;14.068;2023-12-04T02:59:34;27.63;;;13.63;;
47796;SDS011;33558;50.922;14.068;2023-12-04T03:02:00;30.00;;;13.77;;
47796;SDS011;33558;50.922;14.068;2023-12-04T03:04:27;29.33;;;14.37;;
47796;SDS011;33558;50.922;14.068;2023-12-04T03:06:55;31.60;;;13.50;;
47796;SDS011;33558;50.922;14.068;2023-12-04T03:09:21;29.10;;;13.13;;
47796;SDS011;33558;50.922;14.068;2023-12-04T03:11:48;30.37;;;14.13;;
47796;SDS011;33558;50.922;14.068;2023-12-04T03:14:15;28.67;;;13.10;;
47796;SDS011;33558;50.922;14.068;2023-12-04T03:16:43;31.70;;;14.70;;
47796;SDS011;33558;50.922;14.068;2023-12-04T03:19:09;26.83;;;12.80;;
47796;SDS011;33558;50.922;14.068;2023-12-04T03:21:36;29.40;;;12.93;;
47796;SDS011;33558;50.922;14.068;2023-12-04T03:24:03;26.57;;;13.63;;
47796;SDS011;33558;50.922;14.068;2023-12-04T03:26:30;30.13;;;14.00;;
47796;SDS011;33558;50.922;14.068;2023-12-04T03:28:56;31.03;;;14.27;;
47796;SDS011;33558;50.922;14.068;2023-12-04T03:31:23;38.00;;;15.33;;
47796;SDS011;33558;50.922;14.068;2023-12-04T03:33:52;30.83;;;14.33;;
47796;SDS011;33558;50.922;14.068;2023-12-04T03:36:20;37.33;;;16.60;;
47796;SDS011;33558;50.922;14.068;2023-12-04T03:38:46;30.03;;;14.80;;
47796;SDS011;33558;50.922;14.068;2023-12-04T03:41:13;33.93;;;16.10;;
47796;SDS011;33558;50.922;14.068;2023-12-04T03:43:40;31.40;;;14.63;;
47796;SDS011;33558;50.922;14.068;2023-12-04T03:46:07;36.93;;;17.20;;
47796;SDS011;33558;50.922;14.068;2023-12-04T03:48:33;37.53;;;16.70;;
47796;SDS011;33558;50.922;14.068;2023-12-04T03:51:01;34.83;;;16.53;;
47796;SDS011;33558;50.922;14.068;2023-12-04T03:53:28;37.47;;;16.40;;
47796;SDS011;33558;50.922;14.068;2023-12-04T03:55:54;32.57;;;16.00;;
47796;SDS011;33558;50.922;14.068;2023-12-04T03:58:21;36.93;;;16.23;;
47796;SDS011;33558;50.922;14.068;2023-12-04T04:00:47;44.97;;;19.20;;
47796;SDS011;33558;50.922;14.068;2023-12-04T04:03:14;37.60;;;17.60;;
47796;SDS011;33558;50.922;14.068;2023-12-04T04:05:41;43.57;;;17.33;;
47796;SDS011;33558;50.922;14.068;2023-12-04T04:08:09;50.30;;;19.43;;
47796;SDS011;33558;50.922;14.068;2023-12-04T04:10:36;39.83;;;18.87;;
47796;SDS011;33558;50.922;14.068;2023-12-04T04:13:02;41.53;;;17.13;;
47796;SDS011;33558;50.922;14.068;2023-12-04T04:15:29;38.80;;;17.23;;
47796;SDS011;33558;50.922;14.068;2023-12-04T04:17:56;35.53;;;17.37;;
47796;SDS011;33558;50.922;14.068;2023-12-04T04:20:22;36.80;;;16.33;;
47796;SDS011;33558;50.922;14.068;2023-12-04T04:22:49;38.07;;;17.07;;
47796;SDS011;33558;50.922;14.068;2023-12-04T04:25:17;39.77;;;17.47;;
47796;SDS011;33558;50.922;14.068;2023-12-04T04:27:44;38.40;;;18.73;;
47796;SDS011;33558;50.922;14.068;2023-12-04T04:30:10;41.67;;;18.20;;
47796;SDS011;33558;50.922;14.068;2023-12-04T04:32:38;39.20;;;18.20;;
47796;SDS011;33558;50.922;14.068;2023-12-04T04:35:05;39.30;;;18.70;;
47796;SDS011;33558;50.922;14.068;2023-12-04T04:37:32;42.73;;;18.83;;
47796;SDS011;33558;50.922;14.068;2023-12-04T04:40:00;40.30;;;17.50;;
47796;SDS011;33558;50.922;14.068;2023-12-04T04:42:28;36.57;;;17.23;;
47796;SDS011;33558;50.922;14.068;2023-12-04T04:44:55;38.80;;;17.00;;
47796;SDS011;33558;50.922;14.068;2023-12-04T04:47:21;40.87;;;18.67;;
47796;SDS011;33558;50.922;14.068;2023-12-04T04:49:48;35.20;;;17.23;;
47796;SDS011;33558;50.922;14.068;2023-12-04T04:52:14;32.63;;;15.43;;
47796;SDS011;33558;50.922;14.068;2023-12-04T04:54:41;32.73;;;14.70;;
47796;SDS011;33558;50.922;14.068;2023-12-04T04:57:07;38.03;;;17.23;;
47796;SDS011;33558;50.922;14.068;2023-12-04T04:59:35;33.87;;;16.00;;
47796;SDS011;33558;50.922;14.068;2023-12-04T05:02:02;30.00;;;15.30;;
47796;SDS011;33558;50.922;14.068;2023-12-04T05:04:29;34.43;;;15.77;;
47796;SDS011;33558;50.922;14.068;2023-12-04T05:06:56;34.63;;;16.00;;
47796;SDS011;33558;50.922;14.068;2023-12-04T05:09:22;29.97;;;13.67;;
47796;SDS011;33558;50.922;14.068;2023-12-04T05:11:49;31.73;;;14.40;;
47796;SDS011;33558;50.922;14.068;2023-12-04T05:14:16;30.60;;;14.57;;
47796;SDS011;33558;50.922;14.068;2023-12-04T05:16:44;30.63;;;14.73;;
47796;SDS011;33558;50.922;14.068;2023-12-04T05:19:10;30.37;;;14.70;;
47796;SDS011;33558;50.922;14.068;2023-12-04T05:21:37;28.23;;;14.03;;
47796;SDS011;33558;50.922;14.068;2023-12-04T05:24:03;28.13;;;13.77;;
47796;SDS011;33558;50.922;14.068;2023-12-04T05:26:30;26.20;;;12.87;;
47796;SDS011;33558;50.922;14.068;2023-12-04T05:28:57;29.77;;;14.30;;
47796;SDS011;33558;50.922;14.068;2023-12-04T05:31:24;26.73;;;13.10;;
47796;SDS011;33558;50.922;14.068;2023-12-04T05:33:51;29.67;;;14.20;;
47796;SDS011;33558;50.922;14.068;2023-12-04T05:36:18;26.03;;;12.77;;
47796;SDS011;33558;50.922;14.068;2023-12-04T05:38:45;25.83;;;12.37;;
47796;SDS011;33558;50.922;14.068;2023-12-04T05:41:11;25.23;;;12.90;;
47796;SDS011;33558;50.922;14.068;2023-12-04T05:43:38;26.30;;;12.83;;
47796;SDS011;33558;50.922;14.068;2023-12-04T05:46:04;27.10;;;12.97;;
47796;SDS011;33558;50.922;14.068;2023-12-04T05:48:31;25.33;;;12.67;;
47796;SDS011;33558;50.922;14.068;2023-12-04T05:50:59;30.03;;;13.30;;
47796;SDS011;33558;50.922;14.068;2023-12-04T05:53:26;25.13;;;12.33;;
47796;SDS011;33558;50.922;14.068;2023-12-04T05:55:54;24.77;;;12.23;;
47796;SDS011;33558;50.922;14.068;2023-12-04T05:58:20;23.53;;;12.10;;
47796;SDS011;33558;50.922;14.068;2023-12-04T06:00:47;25.83;;;12.70;;
47796;SDS011;33558;50.922;14.068;2023-12-04T06:03:13;26.83;;;13.20;;
47796;SDS011;33558;50.922;14.068;2023-12-04T06:05:40;27.67;;;12.90;;
47796;SDS011;33558;50.922;14.068;2023-12-04T06:08:08;25.30;;;12.60;;
47796;SDS011;33558;50.922;14.068;2023-12-04T06:10:35;31.27;;;12.77;;
47796;SDS011;33558;50.922;14.068;2023-12-04T06:13:01;26.80;;;12.73;;
47796;SDS011;33558;50.922;14.068;2023-12-04T06:15:28;23.27;;;11.53;;
47796;SDS011;33558;50.922;14.068;2023-12-04T06:17:54;23.73;;;11.23;;
47796;SDS011;33558;50.922;14.068;2023-12-04T06:20:21;23.60;;;12.63;;
47796;SDS011;33558;50.922;14.068;2023-12-04T06:22:48;26.10;;;12.07;;
47796;SDS011;33558;50.922;14.068;2023-12-04T06:25:17;23.77;;;11.87;;
47796;SDS011;33558;50.922;14.068;2023-12-04T06:27:44;28.13;;;13.20;;
47796;SDS011;33558;50.922;14.068;2023-12-04T06:30:12;23.03;;;10.63;;
47796;SDS011;33558;50.922;14.068;2023-12-04T06:32:39;25.83;;;11.37;;
47796;SDS011;33558;50.922;14.068;2023-12-04T06:35:07;22.33;;;11.37;;
47796;SDS011;33558;50.922;14.068;2023-12-04T06:37:34;22.17;;;11.10;;
47796;SDS011;33558;50.922;14.068;2023-12-04T06:40:02;20.10;;;10.63;;
47796;SDS011;33558;50.922;14.068;2023-12-04T06:42:31;23.70;;;10.83;;
47796;SDS011;33558;50.922;14.068;2023-12-04T06:44:58;22.33;;;11.57;;
47796;SDS011;33558;50.922;14.068;2023-12-04T06:47:26;21.53;;;10.70;;
47796;SDS011;33558;50.922;14.068;2023-12-04T06:49:53;21.90;;;11.83;;
47796;SDS011;33558;50.922;14.068;2023-12-04T06:52:19;21.67;;;11.07;;
47796;SDS011;33558;50.922;14.068;2023-12-04T06:54:46;23.97;;;12.17;;
47796;SDS011;33558;50.922;14.068;2023-12-04T06:57:12;26.30;;;11.70;;
47796;SDS011;33558;50.922;14.068;2023-12-04T06:59:41;21.87;;;11.13;;
47796;SDS011;33558;50.922;14.068;2023-12-04T07:02:08;22.57;;;11.17;;
47796;SDS011;33558;50.922;14.068;2023-12-04T07:04:34;24.17;;;11.83;;
47796;SDS011;33558;50.922;14.068;2023-12-04T07:07:02;24.17;;;11.47;;
47796;SDS011;33558;50.922;14.068;2023-12-04T07:09:30;24.03;;;11.53;;
47796;SDS011;33558;50.922;14.068;2023-12-04T07:11:56;20.00;;;10.80;;
47796;SDS011;33558;50.922;14.068;2023-12-04T07:14:23;22.43;;;10.97;;
47796;SDS011;33558;50.922;14.068;2023-12-04T07:16:51;23.07;;;12.23;;
47796;SDS011;33558;50.922;14.068;2023-12-04T07:19:18;19.90;;;9.97;;
47796;SDS011;33558;50.922;14.068;2023-12-04T07:21:45;20.67;;;11.00;;
47796;SDS011;33558;50.922;14.068;2023-12-04T07:24:11;20.80;;;11.40;;
47796;SDS011;33558;50.922;14.068;2023-12-04T07:26:38;19.77;;;10.50;;
47796;SDS011;33558;50.922;14.068;2023-12-04T07:29:05;21.60;;;11.60;;
47796;SDS011;33558;50.922;14.068;2023-12-04T07:31:31;20.27;;;9.93;;
47796;SDS011;33558;50.922;14.068;2023-12-04T07:33:59;19.93;;;9.83;;
47796;SDS011;33558;50.922;14.068;2023-12-04T07:36:27;20.10;;;10.57;;
47796;SDS011;33558;50.922;14.068;2023-12-04T07:38:53;20.30;;;10.17;;
47796;SDS011;33558;50.922;14.068;2023-12-04T07:41:20;18.17;;;10.63;;
47796;SDS011;33558;50.922;14.068;2023-12-04T07:43:47;19.63;;;10.23;;
47796;SDS011;33558;50.922;14.068;2023-12-04T07:46:13;20.40;;;10.80;;
47796;SDS011;33558;50.922;14.068;2023-12-04T07:48:40;18.63;;;10.27;;
47796;SDS011;33558;50.922;14.068;2023-12-04T07:51:09;17.37;;;8.67;;
47796;SDS011;33558;50.922;14.068;2023-12-04T07:53:35;15.97;;;9.17;;
47796;SDS011;33558;50.922;14.068;2023-12-04T07:56:02;16.87;;;9.03;;
47796;SDS011;33558;50.922;14.068;2023-12-04T07:58:30;16.33;;;9.03;;
47796;SDS011;33558;50.922;14.068;2023-12-04T08:00:56;17.37;;;9.80;;
47796;SDS011;33558;50.922;14.068;2023-12-04T08:03:23;17.80;;;9.10;;
47796;SDS011;33558;50.922;14.068;2023-12-04T08:05:50;16.57;;;8.67;;
47796;SDS011;33558;50.922;14.068;2023-12-04T08:08:18;17.13;;;8.57;;
47796;SDS011;33558;50.922;14.068;2023-12-04T08:10:44;19.20;;;10.00;;
47796;SDS011;33558;50.922;14.068;2023-12-04T08:13:11;18.30;;;9.20;;
47796;SDS011;33558;50.922;14.068;2023-12-04T08:15:38;18.13;;;10.07;;
47796;SDS011;33558;50.922;14.068;2023-12-04T08:18:05;17.90;;;8.67;;
47796;SDS011;33558;50.922;14.068;2023-12-04T08:20:32;16.90;;;9.17;;
47796;SDS011;33558;50.922;14.068;2023-12-04T08:22:58;19.53;;;10.50;;
47796;SDS011;33558;50.922;14.068;2023-12-04T08:25:26;17.87;;;9.77;;
47796;SDS011;33558;50.922;14.068;2023-12-04T08:27:53;19.27;;;9.33;;
47796;SDS011;33558;50.922;14.068;2023-12-04T08:30:19;17.03;;;10.30;;
47796;SDS011;33558;50.922;14.068;2023-12-04T08:32:46;18.43;;;8.90;;
47796;SDS011;33558;50.922;14.068;2023-12-04T08:35:13;18.07;;;10.07;;
47796;SDS011;33558;50.922;14.068;2023-12-04T08:37:40;16.67;;;9.30;;
47796;SDS011;33558;50.922;14.068;2023-12-04T08:40:07;16.70;;;9.37;;
47796;SDS011;33558;50.922;14.068;2023-12-04T08:42:37;17.30;;;9.63;;
47796;SDS011;33558;50.922;14.068;2023-12-04T08:45:04;15.13;;;9.37;;
47796;SDS011;33558;50.922;14.068;2023-12-04T08:47:32;18.53;;;10.80;;
47796;SDS011;33558;50.922;14.068;2023-12-04T08:49:59;20.40;;;10.87;;
47796;SDS011;33558;50.922;14.068;2023-12-04T08:52:26;18.97;;;9.80;;
47796;SDS011;33558;50.922;14.068;2023-12-04T08:54:53;18.47;;;9.80;;
47796;SDS011;33558;50.922;14.068;2023-12-04T08:57:20;18.57;;;8.97;;
47796;SDS011;33558;50.922;14.068;2023-12-04T08:59:48;16.07;;;9.30;;
47796;SDS011;33558;50.922;14.068;2023-12-04T09:02:14;18.83;;;9.60;;
47796;SDS011;33558;50.922;14.068;2023-12-04T09:04:41;16.67;;;9.23;;
47796;SDS011;33558;50.922;14.068;2023-12-04T09:07:08;17.00;;;9.00;;
47796;SDS011;33558;50.922;14.068;2023-12-04T09:09:35;15.93;;;9.03;;
47796;SDS011;33558;50.922;14.068;2023-12-04T09:12:01;15.33;;;8.90;;
47796;SDS011;33558;50.922;14.068;2023-12-04T09:14:28;17.63;;;9.17;;
47796;SDS011;33558;50.922;14.068;2023-12-04T09:16:56;17.80;;;9.70;;
47796;SDS011;33558;50.922;14.068;2023-12-04T09:19:23;18.10;;;10.03;;
47796;SDS011;33558;50.922;14.068;2023-12-04T09:21:49;18.00;;;9.83;;
47796;SDS011;33558;50.922;14.068;2023-12-04T09:24:16;22.13;;;10.63;;
47796;SDS011;33558;50.922;14.068;2023-12-04T09:26:42;18.87;;;10.80;;
47796;SDS011;33558;50.922;14.068;2023-12-04T09:29:10;19.00;;;10.77;;
47796;SDS011;33558;50.922;14.068;2023-12-04T09:31:37;16.90;;;9.57;;
47796;SDS011;33558;50.922;14.068;2023-12-04T09:34:05;16.00;;;9.33;;
47796;SDS011;33558;50.922;14.068;2023-12-04T09:36:33;18.93;;;9.97;;
47796;SDS011;33558;50.922;14.068;2023-12-04T09:38:59;18.70;;;9.37;;
47796;SDS011;33558;50.922;14.068;2023-12-04T09:41:26;18.43;;;10.23;;
47796;SDS011;33558;50.922;14.068;2023-12-04T09:43:54;18.83;;;10.53;;
47796;SDS011;33558;50.922;14.068;2023-12-04T09:46:20;18.77;;;10.27;;
47796;SDS011;33558;50.922;14.068;2023-12-04T09:48:47;21.80;;;11.53;;
47796;SDS011;33558;50.922;14.068;2023-12-04T09:51:16;17.97;;;9.67;;
47796;SDS011;33558;50.922;14.068;2023-12-04T09:53:45;17.27;;;9.73;;
47796;SDS011;33558;50.922;14.068;2023-12-04T09:56:13;16.70;;;9.20;;
47796;SDS011;33558;50.922;14.068;2023-12-04T09:58:43;19.23;;;10.40;;
47796;SDS011;33558;50.922;14.068;2023-12-04T10:01:10;19.53;;;10.33;;
47796;SDS011;33558;50.922;14.068;2023-12-04T10:03:37;17.90;;;9.50;;
47796;SDS011;33558;50.922;14.068;2023-12-04T10:06:05;18.90;;;10.10;;
47796;SDS011;33558;50.922;14.068;2023-12-04T10:08:34;16.97;;;9.03;;
47796;SDS011;33558;50.922;14.068;2023-12-04T10:11:00;18.60;;;10.77;;
47796;SDS011;33558;50.922;14.068;2023-12-04T10:13:27;17.63;;;9.90;;
47796;SDS011;33558;50.922;14.068;2023-12-04T10:15:53;17.20;;;9.07;;
47796;SDS011;33558;50.922;14.068;2023-12-04T10:18:26;21.00;;;10.53;;
47796;SDS011;33558;50.922;14.068;2023-12-04T10:20:55;17.53;;;9.60;;
47796;SDS011;33558;50.922;14.068;2023-12-04T10:23:22;19.37;;;10.03;;
47796;SDS011;33558;50.922;14.068;2023-12-04T10:25:51;17.87;;;9.93;;
47796;SDS011;33558;50.922;14.068;2023-12-04T10:28:18;17.47;;;10.20;;
47796;SDS011;33558;50.922;14.068;2023-12-04T10:30:45;20.73;;;10.57;;
47796;SDS011;33558;50.922;14.068;2023-12-04T10:33:12;16.77;;;9.63;;
47796;SDS011;33558;50.922;14.068;2023-12-04T10:35:39;19.27;;;10.40;;
47796;SDS011;33558;50.922;14.068;2023-12-04T10:38:06;18.77;;;10.70;;
47796;SDS011;33558;50.922;14.068;2023-12-04T10:40:34;20.17;;;10.13;;
47796;SDS011;33558;50.922;14.068;2023-12-04T10:43:14;18.80;;;10.30;;
47796;SDS011;33558;50.922;14.068;2023-12-04T10:45:42;18.40;;;9.77;;
47796;SDS011;33558;50.922;14.068;2023-12-04T10:48:10;18.87;;;10.43;;
47796;SDS011;33558;50.922;14.068;2023-12-04T10:50:38;16.43;;;9.07;;
47796;SDS011;33558;50.922;14.068;2023-12-04T10:53:06;16.27;;;9.77;;
47796;SDS011;33558;50.922;14.068;2023-12-04T10:55:33;16.83;;;9.73;;
47796;SDS011;33558;50.922;14.068;2023-12-04T10:58:00;18.03;;;9.70;;
47796;SDS011;33558;50.922;14.068;2023-12-04T11:00:31;18.43;;;10.53;;
47796;SDS011;33558;50.922;14.068;2023-12-04T11:03:00;19.43;;;10.07;;
47796;SDS011;33558;50.922;14.068;2023-12-04T11:05:29;17.90;;;9.53;;
47796;SDS011;33558;50.922;14.068;2023-12-04T11:07:57;19.07;;;9.93;;
47796;SDS011;33558;50.922;14.068;2023-12-04T11:10:27;18.83;;;10.63;;
47796;SDS011;33558;50.922;14.068;2023-12-04T11:12:56;17.10;;;9.50;;
47796;SDS011;33558;50.922;14.068;2023-12-04T11:15:25;17.07;;;9.60;;
47796;SDS011;33558;50.922;14.068;2023-12-04T11:17:58;23.10;;;11.87;;
47796;SDS011;33558;50.922;14.068;2023-12-04T11:20:27;19.67;;;9.97;;
47796;SDS011;33558;50.922;14.068;2023-12-04T11:22:54;17.60;;;9.60;;
47796;SDS011;33558;50.922;14.068;2023-12-04T11:25:21;18.17;;;10.03;;
47796;SDS011;33558;50.922;14.068;2023-12-04T11:27:50;16.83;;;10.10;;
47796;SDS011;33558;50.922;14.068;2023-12-04T11:30:17;19.07;;;10.20;;
47796;SDS011;33558;50.922;14.068;2023-12-04T11:32:43;18.33;;;9.73;;
47796;SDS011;33558;50.922;14.068;2023-12-04T11:35:14;17.87;;;9.77;;
47796;SDS011;33558;50.922;14.068;2023-12-04T11:37:43;17.80;;;9.70;;
47796;SDS011;33558;50.922;14.068;2023-12-04T11:40:11;18.23;;;9.70;;
47796;SDS011;33558;50.922;14.068;2023-12-04T11:42:38;20.43;;;10.20;;
47796;SDS011;33558;50.922;14.068;2023-12-04T11:45:05;17.27;;;10.27;;
47796;SDS011;33558;50.922;14.068;2023-12-04T11:50:19;19.80;;;10.13;;
47796;SDS011;33558;50.922;14.068;2023-12-04T11:52:46;19.40;;;10.20;;
47796;SDS011;33558;50.922;14.068;2023-12-04T11:55:15;18.40;;;9.90;;
47796;SDS011;33558;50.922;14.068;2023-12-04T11:57:42;18.83;;;9.97;;
47796;SDS011;33558;50.922;14.068;2023-12-04T12:00:09;19.30;;;11.00;;
47796;SDS011;33558;50.922;14.068;2023-12-04T12:02:40;18.20;;;10.53;;
47796;SDS011;33558;50.922;14.068;2023-12-04T12:05:07;18.13;;;10.00;;
47796;SDS011;33558;50.922;14.068;2023-12-04T12:07:35;19.03;;;10.50;;
47796;SDS011;33558;50.922;14.068;2023-12-04T12:10:02;19.13;;;9.50;;
47796;SDS011;33558;50.922;14.068;2023-12-04T12:12:28;19.17;;;10.23;;
47796;SDS011;33558;50.922;14.068;2023-12-04T12:14:57;21.17;;;12.20;;
47796;SDS011;33558;50.922;14.068;2023-12-04T12:17:23;21.30;;;11.03;;
47796;SDS011;33558;50.922;14.068;2023-12-04T12:19:50;19.87;;;10.17;;
47796;SDS011;33558;50.922;14.068;2023-12-04T12:22:17;20.70;;;11.27;;
47796;SDS011;33558;50.922;14.068;2023-12-04T12:24:45;20.33;;;10.87;;
47796;SDS011;33558;50.922;14.068;2023-12-04T12:27:11;20.27;;;10.47;;
47796;SDS011;33558;50.922;14.068;2023-12-04T12:29:38;21.10;;;11.40;;
47796;SDS011;33558;50.922;14.068;2023-12-04T12:32:05;18.73;;;10.90;;
47796;SDS011;33558;50.922;14.068;2023-12-04T12:34:32;19.10;;;10.97;;
47796;SDS011;33558;50.922;14.068;2023-12-04T12:37:01;20.17;;;10.90;;
47796;SDS011;33558;50.922;14.068;2023-12-04T12:39:28;19.13;;;10.40;;
47796;SDS011;33558;50.922;14.068;2023-12-04T12:41:56;19.67;;;10.93;;
47796;SDS011;33558;50.922;14.068;2023-12-04T12:44:23;19.73;;;10.83;;
47796;SDS011;33558;50.922;14.068;2023-12-04T12:46:50;19.50;;;10.73;;
47796;SDS011;33558;50.922;14.068;2023-12-04T12:49:17;19.10;;;10.30;;
47796;SDS011;33558;50.922;14.068;2023-12-04T12:51:45;19.17;;;10.50;;
47796;SDS011;33558;50.922;14.068;2023-12-04T12:54:12;21.17;;;11.37;;
47796;SDS011;33558;50.922;14.068;2023-12-04T12:56:39;20.97;;;10.43;;
47796;SDS011;33558;50.922;14.068;2023-12-04T12:59:07;19.97;;;10.73;;
47796;SDS011;33558;50.922;14.068;2023-12-04T13:01:34;18.37;;;10.40;;
47796;SDS011;33558;50.922;14.068;2023-12-04T13:04:00;16.70;;;10.57;;
47796;SDS011;33558;50.922;14.068;2023-12-04T13:06:27;18.40;;;10.53;;
47796;SDS011;33558;50.922;14.068;2023-12-04T13:08:55;19.63;;;10.93;;
47796;SDS011;33558;50.922;14.068;2023-12-04T13:11:24;19.97;;;11.10;;
47796;SDS011;33558;50.922;14.068;2023-12-04T13:13:52;20.07;;;11.93;;
47796;SDS011;33558;50.922;14.068;2023-12-04T13:16:24;19.30;;;11.13;;
47796;SDS011;33558;50.922;14.068;2023-12-04T13:18:55;22.20;;;12.17;;
47796;SDS011;33558;50.922;14.068;2023-12-04T13:21:23;19.00;;;10.37;;
47796;SDS011;33558;50.922;14.068;2023-12-04T13:23:51;19.10;;;10.87;;
47796;SDS011;33558;50.922;14.068;2023-12-04T13:26:19;17.53;;;11.23;;
47796;SDS011;33558;50.922;14.068;2023-12-04T13:28:47;17.43;;;10.60;;
47796;SDS011;33558;50.922;14.068;2023-12-04T13:31:15;22.37;;;11.07;;
47796;SDS011;33558;50.922;14.068;2023-12-04T13:33:46;17.50;;;10.37;;
47796;SDS011;33558;50.922;14.068;2023-12-04T13:36:13;20.33;;;11.50;;
47796;SDS011;33558;50.922;14.068;2023-12-04T13:38:41;18.40;;;11.00;;
47796;SDS011;33558;50.922;14.068;2023-12-04T13:41:09;20.40;;;11.60;;
47796;SDS011;33558;50.922;14.068;2023-12-04T13:44:05;18.75;;;10.75;;
47796;SDS011;33558;50.922;14.068;2023-12-04T13:46:33;20.27;;;12.07;;
47796;SDS011;33558;50.922;14.068;2023-12-04T13:49:02;19.77;;;11.03;;
47796;SDS011;33558;50.922;14.068;2023-12-04T13:51:30;18.70;;;11.10;;
47796;SDS011;33558;50.922;14.068;2023-12-04T13:54:01;20.80;;;11.03;;
47796;SDS011;33558;50.922;14.068;2023-12-04T13:56:41;18.53;;;11.40;;
47796;SDS011;33558;50.922;14.068;2023-12-04T13:59:18;28.50;;;13.20;;
47796;SDS011;33558;50.922;14.068;2023-12-04T14:01:47;20.77;;;11.87;;
47796;SDS011;33558;50.922;14.068;2023-12-04T14:04:18;23.13;;;11.77;;
47796;SDS011;33558;50.922;14.068;2023-12-04T14:06:46;22.73;;;12.30;;
47796;SDS011;33558;50.922;14.068;2023-12-04T14:09:14;20.17;;;11.60;;
47796;SDS011;33558;50.922;14.068;2023-12-04T14:11:42;20.73;;;11.83;;
47796;SDS011;33558;50.922;14.068;2023-12-04T14:14:10;21.03;;;11.30;;